Time;durP1;ratioP1;P1;durP2;ratioP2;P2;SDS_P1;SDS_P2;PMS_P1;PMS_P2;Temp;Humidity;BMP_temperature;BMP_pressure;BME280_temperature;BME280_humidity;BME280_pressure;Samples;Min_cycle;Max_cycle;Signal;HPM_P1;HPM_P2
2022/01/26 00:07:19;;;;;;;9.00;5.60;;;;;;101278.52;;;;106585;1297;63510;-33
2022/01/26 00:09:49;;;;;;;8.00;5.40;;;;;;101279.86;;;;106593;1297;63860;-32
2022/01/26 00:12:16;;;;;;;9.50;5.70;;;;;;101285.56;;;;106571;1296;63378;-41
2022/01/26 00:14:44;;;;;;;8.90;5.60;;;;;;101284.25;;;;106589;1297;65746;-40
2022/01/26 00:17:12;;;;;;;9.20;5.60;;;;;;101281.34;;;;106562;1297;63403;-32
2022/01/26 00:22:23;;;;;;;7.80;5.60;;;;;;101277.39;;;;106554;1297;63937;-47
2022/01/26 00:25:08;;;;;;;7.10;5.10;;;;;;101275.45;;;;106587;1297;63318;-47
2022/01/26 00:27:52;;;;;;;8.40;5.90;;;;;;101277.20;;;;106475;1297;67200;-43
2022/01/26 00:34:18;;;;;;;7.80;5.40;;;;;;101281.33;;;;106468;1297;63371;-46
2022/01/26 00:38:47;;;;;;;9.20;5.20;;;;;;101282.78;;;;106578;1297;63391;-41
2022/01/26 00:41:20;;;;;;;7.60;5.70;;;;;;101283.39;;;;106608;1297;69161;-47
2022/01/26 00:43:55;;;;;;;7.50;5.40;;;;;;101279.94;;;;106574;1297;63509;-46
2022/01/26 00:46:24;;;;;;;7.00;4.80;;;;;;101278.58;;;;106575;1297;63358;-46
2022/01/26 00:48:52;;;;;;;8.30;5.30;;;;;;101281.09;;;;106567;1297;63420;-47
2022/01/26 00:51:21;;;;;;;8.60;5.60;;;;;;101280.92;;;;106596;1297;63471;-47
2022/01/26 00:54:02;;;;;;;8.10;5.40;;;;;;101283.29;;;;106586;1297;67543;-47
2022/01/26 00:56:30;;;;;;;7.00;5.00;;;;;;101282.48;;;;106458;1297;63432;-49
2022/01/26 00:58:58;;;;;;;7.10;5.00;;;;;;101281.23;;;;106482;1297;63409;-49
2022/01/26 01:01:25;;;;;;;7.10;5.30;;;;;;101277.55;;;;106560;1296;63535;-49
2022/01/26 01:03:53;;;;;;;9.20;5.90;;;;;;101276.09;;;;106381;1297;268560;-48
2022/01/26 01:08:51;;;;;;;7.80;5.10;;;;;;101282.05;;;;106568;1297;63508;-45
2022/01/26 01:11:18;;;;;;;6.70;4.90;;;;;;101281.08;;;;106591;1297;63497;-43
2022/01/26 01:13:46;;;;;;;8.00;5.40;;;;;;101277.17;;;;106592;1297;63384;-48
2022/01/26 01:16:19;;;;;;;8.30;5.50;;;;;;101271.73;;;;106605;1297;63341;-43
2022/01/26 01:34:05;;;;;;;7.30;5.10;;;;;;101266.63;;;;106574;1297;63447;-41
2022/01/26 01:36:34;;;;;;;9.10;5.90;;;;;;101259.16;;;;106467;1297;63431;-43
2022/01/26 01:39:02;;;;;;;8.20;5.20;;;;;;101257.90;;;;106540;1297;63495;-42
2022/01/26 01:41:29;;;;;;;7.60;4.90;;;;;;101253.10;;;;106572;1297;63391;-48
2022/01/26 01:43:56;;;;;;;8.00;5.30;;;;;;101249.13;;;;106589;1297;67259;-48
2022/01/26 01:46:23;;;;;;;7.50;4.90;;;;;;101247.92;;;;106580;1297;63429;-41
2022/01/26 01:48:50;;;;;;;8.10;5.30;;;;;;101249.79;;;;106571;1297;63457;-41
2022/01/26 01:51:19;;;;;;;7.30;4.90;;;;;;101250.23;;;;106448;1297;63506;-41
2022/01/26 01:53:46;;;;;;;7.70;5.00;;;;;;101248.68;;;;106556;1297;63433;-41
2022/01/26 01:56:17;;;;;;;7.60;5.10;;;;;;101246.54;;;;106603;1297;67015;-41
2022/01/26 01:58:44;;;;;;;8.30;5.30;;;;;;101250.73;;;;106561;1297;63448;-41
2022/01/26 02:01:13;;;;;;;8.80;5.10;;;;;;101255.77;;;;106442;1297;63635;-42
2022/01/26 02:03:40;;;;;;;8.00;5.20;;;;;;101254.70;;;;106569;1297;63412;-41
2022/01/26 02:06:07;;;;;;;7.50;5.10;;;;;;101250.45;;;;106607;1297;63447;-48
2022/01/26 02:08:37;;;;;;;7.20;5.00;;;;;;101252.19;;;;106600;1297;66088;-47
2022/01/26 02:11:06;;;;;;;8.40;5.00;;;;;;101252.59;;;;106583;1297;63520;-48
2022/01/26 02:13:42;;;;;;;8.10;5.00;;;;;;101252.52;;;;106570;1297;63499;-46
2022/01/26 02:19:51;;;;;;;8.30;4.80;;;;;;101248.19;;;;106275;1303;63542;-48
2022/01/26 02:49:33;;;;;;;8.20;5.10;;;;;;101243.27;;;;106556;1296;63336;-41
2022/01/26 03:00:56;;;;;;;7.10;4.90;;;;;;101241.63;;;;106589;1297;63389;-32
2022/01/26 03:03:57;;;;;;;7.30;4.70;;;;;;101240.89;;;;106585;1296;68177;-42
2022/01/26 03:06:17;;;;;;;6.50;4.30;;;;;;101237.39;;;;106576;1297;63409;-47
2022/01/26 03:08:51;;;;;;;7.20;4.90;;;;;;101235.43;;;;106579;1297;63508;-47
2022/01/26 03:11:19;;;;;;;6.70;4.60;;;;;;101232.19;;;;106593;1297;63380;-48
2022/01/26 03:13:55;;;;;;;8.20;5.00;;;;;;101233.59;;;;106588;1297;63406;-47
2022/01/26 03:16:33;;;;;;;6.90;4.80;;;;;;101236.13;;;;106605;1297;67355;-47
2022/01/26 03:21:51;;;;;;;7.30;4.90;;;;;;101241.38;;;;106564;1296;63389;-41
2022/01/26 03:30:05;;;;;;;6.90;4.30;;;;;;101237.70;;;;106591;1297;68230;-41
2022/01/26 03:35:27;;;;;;;7.60;4.50;;;;;;101232.63;;;;106583;1297;63477;-41
2022/01/26 03:37:56;;;;;;;6.80;4.60;;;;;;101231.52;;;;106576;1297;63313;-48
2022/01/26 03:40:33;;;;;;;7.50;4.90;;;;;;101231.16;;;;106620;1297;63410;-47
2022/01/26 03:43:00;;;;;;;7.40;4.50;;;;;;101230.44;;;;106585;1296;67406;-47
2022/01/26 03:45:28;;;;;;;6.40;4.10;;;;;;101227.61;;;;106580;1297;63393;-41
2022/01/26 03:47:55;;;;;;;7.20;4.60;;;;;;101227.79;;;;106473;1297;63447;-41
2022/01/26 03:50:24;;;;;;;7.90;5.20;;;;;;101224.73;;;;106470;1297;63396;-41
2022/01/26 03:52:52;;;;;;;7.20;4.60;;;;;;101228.27;;;;106587;1297;63382;-42
2022/01/26 03:55:19;;;;;;;7.30;4.40;;;;;;101228.04;;;;106583;1297;67424;-41
2022/01/26 03:57:46;;;;;;;7.00;4.80;;;;;;101230.91;;;;106582;1297;63365;-41
2022/01/26 04:00:14;;;;;;;8.10;4.90;;;;;;101233.23;;;;106588;1297;63350;-42
2022/01/26 04:02:41;;;;;;;6.50;4.20;;;;;;101236.44;;;;106557;1297;63440;-44
2022/01/26 04:05:11;;;;;;;7.00;4.30;;;;;;101236.48;;;;106602;1296;63384;-43
2022/01/26 04:07:43;;;;;;;8.00;4.70;;;;;;101239.90;;;;106587;1297;66941;-41
2022/01/26 04:10:25;;;;;;;6.90;4.40;;;;;;101240.11;;;;106581;1296;63447;-43
2022/01/26 04:12:55;;;;;;;7.40;4.50;;;;;;101238.73;;;;106563;1296;63472;-47
2022/01/26 04:15:28;;;;;;;6.00;4.10;;;;;;101232.43;;;;106564;1297;63474;-41
2022/01/26 04:17:56;;;;;;;7.30;5.10;;;;;;101231.29;;;;106460;1297;63425;-41
2022/01/26 04:20:27;;;;;;;8.20;4.70;;;;;;101231.99;;;;106582;1297;65657;-41
2022/01/26 04:23:08;;;;;;;7.30;4.60;;;;;;101231.02;;;;106531;1298;63369;-41
2022/01/26 04:25:40;;;;;;;6.50;4.50;;;;;;101230.63;;;;106530;1297;63355;-41
2022/01/26 04:28:12;;;;;;;6.50;4.10;;;;;;101233.64;;;;106566;1297;63546;-42
2022/01/26 04:30:42;;;;;;;6.80;4.50;;;;;;101230.90;;;;106583;1297;63446;-41
2022/01/26 04:33:10;;;;;;;7.10;4.70;;;;;;101228.33;;;;106585;1297;67999;-41
2022/01/26 04:35:43;;;;;;;5.90;4.10;;;;;;101228.48;;;;106577;1297;63340;-42
2022/01/26 04:40:46;;;;;;;7.10;4.40;;;;;;101228.48;;;;106578;1296;63605;-41
2022/01/26 04:43:21;;;;;;;7.40;4.40;;;;;;101228.42;;;;106596;1296;63514;-49
2022/01/26 04:45:48;;;;;;;7.00;4.30;;;;;;101226.13;;;;106661;1296;69003;-41
2022/01/26 04:48:19;;;;;;;6.90;4.30;;;;;;101226.54;;;;106632;1296;63455;-43
2022/01/26 04:50:49;;;;;;;6.30;3.90;;;;;;101224.63;;;;106655;1297;63426;-47
2022/01/26 04:53:16;;;;;;;6.60;4.30;;;;;;101221.58;;;;106647;1297;63504;-47
2022/01/26 04:55:43;;;;;;;6.60;4.10;;;;;;101221.52;;;;106688;1297;63463;-47
2022/01/26 04:58:10;;;;;;;6.40;4.30;;;;;;101218.88;;;;106652;1296;67316;-47
2022/01/26 05:00:38;;;;;;;6.10;3.90;;;;;;101214.31;;;;106664;1296;63428;-41
2022/01/26 05:03:05;;;;;;;6.60;4.00;;;;;;101216.42;;;;106536;1296;63528;-41
2022/01/26 05:05:32;;;;;;;6.80;4.10;;;;;;101213.02;;;;106639;1297;63415;-41
2022/01/26 05:08:00;;;;;;;6.70;4.50;;;;;;101207.67;;;;106628;1295;63370;-42
2022/01/26 05:10:28;;;;;;;7.80;4.40;;;;;;101207.71;;;;106653;1296;67019;-41
2022/01/26 05:12:55;;;;;;;6.70;4.10;;;;;;101202.96;;;;106640;1296;63784;-41
2022/01/26 05:15:24;;;;;;;6.70;4.30;;;;;;101200.30;;;;106659;1297;63371;-47
2022/01/26 05:17:52;;;;;;;6.50;3.90;;;;;;101197.38;;;;106534;1297;63871;-47
2022/01/26 05:20:19;;;;;;;7.40;4.00;;;;;;101195.25;;;;106645;1296;63446;-47
2022/01/26 05:22:49;;;;;;;5.60;4.00;;;;;;101196.55;;;;106653;1296;66777;-47
2022/01/26 05:25:16;;;;;;;6.10;3.90;;;;;;101198.80;;;;106630;1296;63510;-46
2022/01/26 05:27:46;;;;;;;6.80;3.80;;;;;;101195.76;;;;106551;1296;63362;-47
2022/01/26 05:30:13;;;;;;;6.60;4.20;;;;;;101197.73;;;;106620;1296;63511;-42
2022/01/26 05:32:44;;;;;;;7.10;4.00;;;;;;101194.09;;;;106644;1295;63355;-42
2022/01/26 05:35:11;;;;;;;7.20;3.90;;;;;;101194.11;;;;106637;1296;66766;-45
2022/01/26 05:37:41;;;;;;;6.30;3.60;;;;;;101195.27;;;;106558;1297;63589;-42
2022/01/26 05:40:09;;;;;;;6.70;3.80;;;;;;101193.06;;;;106627;1296;63460;-43
2022/01/26 05:42:41;;;;;;;6.10;3.60;;;;;;101192.90;;;;106631;1297;63500;-47
2022/01/26 05:45:20;;;;;;;5.90;3.60;;;;;;101192.60;;;;106647;1296;63323;-44
2022/01/26 05:47:47;;;;;;;5.70;3.40;;;;;;101196.60;;;;106553;1296;67866;-48
2022/01/26 05:50:15;;;;;;;6.40;3.80;;;;;;101198.10;;;;106523;1297;63543;-47
2022/01/26 05:52:42;;;;;;;7.20;3.80;;;;;;101199.48;;;;106643;1295;63970;-48
2022/01/26 05:55:09;;;;;;;5.70;3.40;;;;;;101197.52;;;;106636;1297;63489;-45
2022/01/26 05:57:36;;;;;;;5.90;3.90;;;;;;101201.81;;;;106649;1297;63507;-42
2022/01/26 06:00:05;;;;;;;7.20;3.40;;;;;;101197.59;;;;106596;1297;67176;-42
2022/01/26 06:02:33;;;;;;;6.10;3.50;;;;;;101195.16;;;;106625;1296;63491;-43
2022/01/26 06:05:00;;;;;;;6.30;3.60;;;;;;101191.55;;;;106629;1297;63413;-42
2022/01/26 06:07:27;;;;;;;6.50;3.80;;;;;;101193.14;;;;106660;1297;63387;-47
2022/01/26 06:09:54;;;;;;;6.00;3.50;;;;;;101188.80;;;;106679;1296;63346;-48
2022/01/26 06:12:22;;;;;;;5.90;3.60;;;;;;101186.10;;;;106447;1296;65899;-42
2022/01/26 06:14:52;;;;;;;6.00;3.40;;;;;;101186.94;;;;106641;1297;63562;-42
2022/01/26 06:17:19;;;;;;;5.90;4.00;;;;;;101182.54;;;;106641;1297;63374;-48
2022/01/26 06:19:46;;;;;;;6.40;3.60;;;;;;101180.48;;;;106626;1296;63370;-47
2022/01/26 06:22:13;;;;;;;6.00;3.80;;;;;;101183.89;;;;106579;1297;63350;-41
2022/01/26 06:24:41;;;;;;;6.30;3.90;;;;;;101184.30;;;;106657;1297;68034;-41
2022/01/26 06:27:09;;;;;;;6.90;4.10;;;;;;101179.88;;;;106634;1297;63605;-33
2022/01/26 06:29:36;;;;;;;5.50;3.70;;;;;;101178.89;;;;106518;1296;63364;-40
2022/01/26 06:32:05;;;;;;;7.10;3.80;;;;;;101177.37;;;;106631;1296;63459;-40
2022/01/26 06:34:38;;;;;;;6.80;3.50;;;;;;101176.53;;;;106554;1297;63373;-41
2022/01/26 06:37:06;;;;;;;5.90;3.50;;;;;;101176.42;;;;106529;1297;65292;-41
2022/01/26 06:39:36;;;;;;;6.40;3.50;;;;;;101178.73;;;;106543;1297;63441;-49
2022/01/26 06:42:11;;;;;;;5.60;3.80;;;;;;101175.61;;;;106655;1296;63474;-41
2022/01/26 06:44:50;;;;;;;5.80;3.50;;;;;;101177.01;;;;106623;1296;63414;-41
2022/01/26 06:47:33;;;;;;;5.90;3.70;;;;;;101177.48;;;;106489;1297;63510;-41
2022/01/26 06:50:05;;;;;;;;;;;;;;101178.70;;;;106564;1295;66714;-41
2022/01/26 06:52:32;;;;;;;8.20;4.30;;;;;;101178.59;;;;106655;1296;63759;-47
2022/01/26 06:55:01;;;;;;;6.90;3.50;;;;;;101182.03;;;;106588;1296;63429;-45
2022/01/26 06:57:28;;;;;;;6.40;3.90;;;;;;101180.40;;;;106643;1296;63328;-41
2022/01/26 06:59:55;;;;;;;5.90;3.50;;;;;;101182.11;;;;106671;1296;63369;-46
2022/01/26 07:02:22;;;;;;;6.40;4.00;;;;;;101179.54;;;;106636;1297;65811;-47
2022/01/26 07:04:49;;;;;;;6.70;3.80;;;;;;101177.02;;;;106664;1296;63530;-46
2022/01/26 07:07:16;;;;;;;6.20;3.50;;;;;;101177.17;;;;106647;1297;63927;-41
2022/01/26 07:09:43;;;;;;;5.30;3.60;;;;;;101175.87;;;;106579;1297;63382;-41
2022/01/26 07:12:11;;;;;;;5.90;3.90;;;;;;101177.95;;;;106578;1297;63534;-41
2022/01/26 07:22:56;;;;;;;5.90;3.30;;;;;;101166.95;;;;106627;1297;63432;-41
2022/01/26 07:25:23;;;;;;;5.50;3.50;;;;;;101165.13;;;;106547;1297;63376;-41
2022/01/26 07:27:55;;;;;;;5.60;3.60;;;;;;101163.54;;;;106575;1297;66796;-41
2022/01/26 07:30:23;;;;;;;6.00;3.60;;;;;;101164.30;;;;106661;1296;63608;-47
2022/01/26 07:32:54;;;;;;;6.70;3.90;;;;;;101166.81;;;;106637;1297;63369;-47
2022/01/26 07:35:21;;;;;;;6.10;3.50;;;;;;101170.89;;;;106642;1297;63449;-47
2022/01/26 07:37:53;;;;;;;7.20;3.70;;;;;;101170.82;;;;106669;1296;63385;-47
2022/01/26 07:40:20;;;;;;;6.40;4.00;;;;;;101170.51;;;;106570;1296;66803;-47
2022/01/26 07:42:48;;;;;;;6.50;3.70;;;;;;101172.75;;;;106648;1297;63299;-47
2022/01/26 07:45:15;;;;;;;6.70;3.70;;;;;;101176.41;;;;106646;1296;63401;-46
2022/01/26 07:47:43;;;;;;;6.10;3.80;;;;;;101179.34;;;;106586;1297;63411;-47
2022/01/26 07:50:14;;;;;;;6.50;3.60;;;;;;101181.83;;;;106583;1296;63378;-44
2022/01/26 07:52:42;;;;;;;5.60;3.50;;;;;;101176.05;;;;106652;1296;67442;-41
2022/01/26 07:55:16;;;;;;;7.00;3.80;;;;;;101172.80;;;;106629;1296;63448;-44
2022/01/26 07:57:49;;;;;;;6.10;3.60;;;;;;101176.12;;;;106551;1295;63999;-47
2022/01/26 08:00:19;;;;;;;6.30;3.30;;;;;;101171.13;;;;106433;1297;63354;-41
2022/01/26 08:02:50;;;;;;;6.90;3.50;;;;;;101167.48;;;;106513;1296;63414;-42
2022/01/26 08:05:21;;;;;;;6.00;3.50;;;;;;101164.83;;;;106386;1297;69757;-47
2022/01/26 08:07:49;;;;;;;5.90;3.40;;;;;;101162.78;;;;106373;1297;63526;-47
2022/01/26 08:10:17;;;;;;;6.60;3.50;;;;;;101165.47;;;;106464;1297;63370;-42
2022/01/26 08:12:51;;;;;;;5.70;3.30;;;;;;101166.13;;;;106645;1296;63456;-42
2022/01/26 08:15:18;;;;;;;6.10;3.80;;;;;;101166.89;;;;106556;1296;63446;-43
2022/01/26 08:17:50;;;;;;;7.30;3.90;;;;;;101169.23;;;;106671;1295;67338;-43
2022/01/26 08:20:18;;;;;;;6.20;3.50;;;;;;101166.95;;;;106579;1296;64518;-41
2022/01/26 08:22:51;;;;;;;5.80;3.30;;;;;;101164.63;;;;106453;1295;63571;-42
2022/01/26 08:25:19;;;;;;;6.90;3.80;;;;;;101168.29;;;;106563;1297;63430;-47
2022/01/26 08:28:02;;;;;;;6.10;3.40;;;;;;101168.27;;;;106588;1296;63462;-47
2022/01/26 08:30:35;;;;;;;6.10;3.30;;;;;;101174.09;;;;106682;1297;66551;-42
2022/01/26 08:33:05;;;;;;;7.30;4.20;;;;;;101173.41;;;;106488;1296;63447;-41
2022/01/26 08:35:34;;;;;;;9.20;3.80;;;;;;101176.67;;;;106418;1300;63468;-43
2022/01/26 08:38:02;;;;;;;7.50;3.60;;;;;;101176.02;;;;106552;1296;63554;-46
2022/01/26 08:40:33;;;;;;;9.00;4.00;;;;;;101176.71;;;;106542;1297;63359;-42
2022/01/26 08:43:01;;;;;;;6.00;3.30;;;;;;101176.66;;;;106538;1299;66288;-41
2022/01/26 08:45:29;;;;;;;8.40;5.00;;;;;;101174.40;;;;106498;1297;63521;-39
2022/01/26 08:47:57;;;;;;;9.20;4.50;;;;;;101177.45;;;;106464;1297;63493;-40
2022/01/26 08:50:24;;;;;;;8.40;5.20;;;;;;101170.89;;;;106593;1297;63347;-41
2022/01/26 08:52:52;;;;;;;7.50;4.20;;;;;;101177.71;;;;106601;1297;63556;-37
2022/01/26 08:55:19;;;;;;;8.80;5.30;;;;;;101174.10;;;;106516;1297;68130;-41
2022/01/26 08:57:46;;;;;;;9.80;6.00;;;;;;101170.71;;;;106551;1297;63508;-41
2022/01/26 09:00:16;;;;;;;9.80;5.70;;;;;;101172.44;;;;106459;1297;63441;-39
2022/01/26 09:02:44;;;;;;;8.40;4.70;;;;;;101168.48;;;;106379;1296;239873;-43
2022/01/26 09:05:11;;;;;;;9.30;4.90;;;;;;101172.23;;;;106600;1296;63434;-35
2022/01/26 09:07:42;;;;;;;9.00;5.60;;;;;;101172.73;;;;106575;1296;67791;-35
2022/01/26 09:10:12;;;;;;;8.60;5.40;;;;;;101173.86;;;;106458;1297;63485;-43
2022/01/26 09:12:42;;;;;;;7.40;4.60;;;;;;101168.41;;;;106568;1297;63342;-44
2022/01/26 09:15:12;;;;;;;8.30;5.60;;;;;;101162.30;;;;106547;1297;63395;-43
2022/01/26 09:17:40;;;;;;;9.40;5.50;;;;;;101169.41;;;;106589;1295;63420;-43
2022/01/26 09:20:08;;;;;;;9.60;5.30;;;;;;101172.09;;;;106470;1295;67002;-42
2022/01/26 09:22:35;;;;;;;8.80;4.80;;;;;;101167.84;;;;106560;1297;63420;-42
2022/01/26 09:25:04;;;;;;;9.40;5.30;;;;;;101168.45;;;;106568;1297;63423;-44
2022/01/26 09:27:31;;;;;;;8.30;4.70;;;;;;101166.33;;;;106442;1297;63474;-40
2022/01/26 09:29:58;;;;;;;9.30;5.10;;;;;;101165.81;;;;106565;1297;63455;-42
2022/01/26 09:32:24;;;;;;;8.60;4.90;;;;;;101172.09;;;;106565;1297;66919;-41
2022/01/26 09:34:51;;;;;;;8.60;4.70;;;;;;101166.38;;;;106551;1296;63516;-42
2022/01/26 09:37:19;;;;;;;8.90;4.90;;;;;;101172.50;;;;106469;1297;63339;-40
2022/01/26 09:39:47;;;;;;;7.10;4.60;;;;;;101163.85;;;;106563;1296;63477;-42
2022/01/26 09:42:17;;;;;;;8.20;4.80;;;;;;101163.14;;;;106596;1297;63387;-42
2022/01/26 09:44:44;;;;;;;8.50;5.20;;;;;;101161.02;;;;106573;1297;68136;-43
2022/01/26 09:47:12;;;;;;;7.70;5.10;;;;;;101166.13;;;;106579;1296;63330;-42
2022/01/26 09:49:39;;;;;;;9.30;5.40;;;;;;101165.70;;;;106545;1297;63455;-40
2022/01/26 09:55:00;;;;;;;8.20;4.80;;;;;;101158.58;;;;106785;1287;63422;-30
2022/01/26 09:57:28;;;;;;;9.10;5.40;;;;;;101167.89;;;;106879;1293;67287;-29
2022/01/26 09:59:57;;;;;;;8.00;5.70;;;;;;101166.50;;;;106681;1293;63432;-29
2022/01/26 10:02:30;;;;;;;8.40;5.60;;;;;;101162.36;;;;106845;1293;63410;-29
2022/01/26 10:05:02;;;;;;;7.00;4.30;;;;;;101162.35;;;;106581;1297;63423;-28
2022/01/26 10:15:45;;;;;;;8.10;4.40;;;;;;101132.23;;;;106752;1297;63387;-30
2022/01/26 10:18:20;;;;;;;7.10;4.00;;;;;;101129.88;;;;106631;1296;63392;-31
2022/01/26 10:20:59;;;;;;;9.30;4.90;;;;;;101123.30;;;;106586;1297;63373;-37
2022/01/26 10:23:34;;;;;;;7.20;4.30;;;;;;101119.81;;;;106489;1297;67979;-33
2022/01/26 10:26:19;;;;;;;7.00;4.50;;;;;;101116.94;;;;106661;1297;63515;-32
2022/01/26 10:28:53;;;;;;;9.10;4.90;;;;;;101118.18;;;;106744;1295;63470;-29
2022/01/26 10:31:28;;;;;;;8.10;5.10;;;;;;101122.73;;;;106736;1296;63437;-33
2022/01/26 10:34:06;;;;;;;7.50;4.60;;;;;;101119.58;;;;106687;1297;63369;-32
2022/01/26 10:36:46;;;;;;;6.70;3.90;;;;;;101120.52;;;;106767;1297;68949;-36
2022/01/26 10:39:22;;;;;;;7.00;4.20;;;;;;101116.91;;;;106578;1297;63391;-34
2022/01/26 10:41:53;;;;;;;7.20;4.00;;;;;;101110.30;;;;106496;1296;63512;-40
2022/01/26 10:44:39;;;;;;;6.20;3.10;;;;;;101101.27;;;;106573;1294;63425;-42
2022/01/26 10:47:09;;;;;;;6.70;3.70;;;;;;101098.14;;;;106798;1294;63380;-43
2022/01/26 10:52:30;;;;;;;6.00;3.40;;;;;;101084.52;;;;106813;1294;63403;-44
2022/01/26 10:54:58;;;;;;;6.10;3.60;;;;;;101084.55;;;;106559;1297;63372;-43
2022/01/26 10:57:26;;;;;;;6.70;3.60;;;;;;101083.89;;;;106556;1294;63417;-44
2022/01/26 10:59:54;;;;;;;5.80;3.10;;;;;;101083.02;;;;106839;1294;63494;-44
2022/01/26 11:02:28;;;;;;;6.50;3.40;;;;;;101076.95;;;;106679;1294;65575;-44
2022/01/26 11:04:55;;;;;;;6.80;3.20;;;;;;101073.77;;;;106648;1294;63304;-44
2022/01/26 11:07:32;;;;;;;7.00;3.50;;;;;;101072.26;;;;106829;1293;63379;-43
2022/01/26 11:10:04;;;;;;;5.90;3.30;;;;;;101070.39;;;;106586;1294;63607;-44
2022/01/26 11:12:33;;;;;;;5.90;3.40;;;;;;101069.73;;;;106809;1294;63399;-45
2022/01/26 11:15:13;;;;;;;6.20;3.30;;;;;;101062.45;;;;106836;1294;65271;-44
2022/01/26 11:17:46;;;;;;;5.90;3.50;;;;;;101062.15;;;;106811;1294;63376;-44
2022/01/26 11:20:34;;;;;;;5.40;3.20;;;;;;101060.98;;;;106794;1294;63470;-43
2022/01/26 11:23:05;;;;;;;6.20;3.40;;;;;;101060.27;;;;106778;1294;63542;-44
2022/01/26 11:25:51;;;;;;;6.10;3.30;;;;;;101059.91;;;;106833;1294;63415;-45
2022/01/26 11:28:24;;;;;;;6.00;2.90;;;;;;101058.11;;;;106666;1294;68017;-45
2022/01/26 11:30:57;;;;;;;6.60;3.40;;;;;;101057.14;;;;106692;1294;64006;-45
2022/01/26 11:33:27;;;;;;;;;;;;;;101054.35;;;;106759;1294;63444;-44
2022/01/26 11:35:57;;;;;;;7.00;3.30;;;;;;101054.20;;;;106690;1294;63412;-47
2022/01/26 11:47:18;;;;;;;6.30;3.70;;;;;;101044.91;;;;106640;1296;63383;-37
2022/01/26 11:49:47;;;;;;;6.20;3.70;;;;;;101040.48;;;;106494;1297;63466;-38
2022/01/26 11:52:27;;;;;;;7.60;4.10;;;;;;101036.14;;;;106659;1297;63457;-36
2022/01/26 11:54:57;;;;;;;6.80;3.50;;;;;;101031.64;;;;106714;1297;67054;-45
2022/01/26 11:57:51;;;;;;;7.10;3.80;;;;;;101019.48;;;;106500;1297;63442;-38
2022/01/26 12:00:40;;;;;;;;;;;;;;101021.40;;;;106718;1297;63375;-40
2022/01/26 12:03:21;;;;;;;8.80;4.10;;;;;;101019.02;;;;106705;1297;63323;-43
2022/01/26 12:05:50;;;;;;;6.20;4.00;;;;;;101016.95;;;;106538;1297;63368;-43
2022/01/26 12:08:30;;;;;;;9.30;3.80;;;;;;101013.16;;;;106737;1296;67329;-45
2022/01/26 12:10:57;;;;;;;6.00;3.50;;;;;;101012.18;;;;106585;1297;63472;-48
2022/01/26 12:13:28;;;;;;;6.30;3.90;;;;;;101010.75;;;;106711;1296;63416;-36
2022/01/26 12:16:04;;;;;;;6.50;3.40;;;;;;101008.84;;;;106718;1295;63460;-38
2022/01/26 12:18:38;;;;;;;5.80;3.50;;;;;;101007.41;;;;106663;1296;63481;-48
2022/01/26 12:33:25;;;;;;;7.10;4.10;;;;;;101006.27;;;;106729;1295;63322;-45
2022/01/26 12:38:43;;;;;;;7.80;3.90;;;;;;101000.94;;;;106714;1295;63486;-38
2022/01/26 12:41:32;;;;;;;6.50;4.10;;;;;;100995.24;;;;106673;1296;63464;-37
2022/01/26 12:44:08;;;;;;;6.80;3.80;;;;;;100980.49;;;;106705;1297;63369;-38
2022/01/26 12:46:40;;;;;;;6.20;3.80;;;;;;100977.48;;;;106491;1297;63429;-38
2022/01/26 12:49:19;;;;;;;6.00;3.90;;;;;;100973.45;;;;106730;1296;66602;-48
2022/01/26 12:51:52;;;;;;;7.20;4.10;;;;;;100969.48;;;;106553;1297;63386;-47
2022/01/26 12:54:20;;;;;;;6.00;3.80;;;;;;100974.27;;;;106718;1297;63334;-46
2022/01/26 12:56:47;;;;;;;6.90;3.60;;;;;;100976.52;;;;106693;1295;63426;-44
2022/01/26 12:59:19;;;;;;;8.10;4.30;;;;;;100977.49;;;;106715;1295;63404;-45
2022/01/26 13:01:52;;;;;;;6.50;4.50;;;;;;100975.16;;;;106718;1297;65556;-44
2022/01/26 13:04:19;;;;;;;6.30;3.80;;;;;;100969.41;;;;106682;1297;63403;-44
2022/01/26 13:06:52;;;;;;;6.80;4.40;;;;;;100969.20;;;;106556;1296;63325;-43
2022/01/26 13:09:21;;;;;;;7.00;4.10;;;;;;100969.59;;;;106668;1295;63358;-45
2022/01/26 13:11:50;;;;;;;7.10;3.80;;;;;;100967.68;;;;106734;1297;63450;-45
2022/01/26 13:14:41;;;;;;;6.70;4.40;;;;;;100969.70;;;;106706;1296;65601;-37
2022/01/26 13:25:37;;;;;;;6.80;3.80;;;;;;100961.92;;;;106735;1295;63371;-44
2022/01/26 13:49:42;;;;;;;7.30;4.00;;;;;;100940.33;;;;106669;1296;63426;-47
2022/01/26 13:52:21;;;;;;;6.80;4.20;;;;;;100938.30;;;;106663;1296;63459;-42
2022/01/26 13:59:56;;;;;;;6.20;3.80;;;;;;100929.27;;;;106676;1297;63530;-33
2022/01/26 14:02:27;;;;;;;5.60;3.90;;;;;;100927.67;;;;106681;1296;63517;-38
2022/01/26 14:04:54;;;;;;;6.80;4.00;;;;;;100927.23;;;;106705;1296;63467;-45
2022/01/26 14:07:21;;;;;;;6.40;4.20;;;;;;100924.91;;;;106697;1296;67043;-44
2022/01/26 14:09:48;;;;;;;6.00;3.80;;;;;;100922.59;;;;106682;1296;63404;-43
2022/01/26 14:12:20;;;;;;;6.10;4.00;;;;;;100922.82;;;;106598;1297;63522;-43
2022/01/26 14:14:52;;;;;;;6.30;3.90;;;;;;100918.86;;;;106687;1296;64020;-43
2022/01/26 14:17:33;;;;;;;6.40;4.30;;;;;;100917.20;;;;106740;1296;63472;-42
2022/01/26 14:25:36;;;;;;;6.40;3.90;;;;;;100913.34;;;;106713;1296;63455;-33
2022/01/26 14:28:08;;;;;;;7.00;4.10;;;;;;100910.69;;;;106660;1297;63370;-45
2022/01/26 14:36:23;;;;;;;7.60;3.90;;;;;;100903.00;;;;106680;1296;63486;-39
2022/01/26 15:08:42;;;;;;;9.90;8.90;;;;;;100881.27;;;;106688;1296;68252;-36
2022/01/26 15:41:21;;;;;;;9.80;7.30;;;;;;100880.58;;;;106700;1296;67329;-43
2022/01/26 16:07:43;;;;;;;7.90;6.10;;;;;;100868.48;;;;106652;1296;68600;-44
2022/01/26 16:21:47;;;;;;;8.40;5.70;;;;;;100858.45;;;;106741;1296;66854;-43
2022/01/26 16:37:48;;;;;;;6.90;5.00;;;;;;100863.19;;;;106648;1297;63532;-41
2022/01/26 17:02:29;;;;;;;7.10;4.80;;;;;;100857.51;;;;106640;1296;63463;-41
2022/01/26 18:15:54;;;;;;;6.50;4.30;;;;;;100833.80;;;;106623;1297;64085;-42
2022/01/26 18:27:03;;;;;;;5.90;3.60;;;;;;100824.20;;;;106630;1297;63550;-43
2022/01/26 18:32:30;;;;;;;5.80;3.60;;;;;;100820.21;;;;106670;1294;63432;-48
2022/01/26 18:40:40;;;;;;;6.30;3.50;;;;;;100813.30;;;;106595;1296;63495;-47
2022/01/26 18:51:24;;;;;;;5.20;3.30;;;;;;100816.73;;;;106740;1297;66717;-46
2022/01/26 18:53:52;;;;;;;5.40;3.20;;;;;;100814.91;;;;106726;1296;63591;-49
2022/01/26 18:56:21;;;;;;;5.70;3.60;;;;;;100818.82;;;;106719;1296;63380;-42
2022/01/26 18:58:50;;;;;;;5.70;3.90;;;;;;100817.66;;;;106729;1297;63374;-37
2022/01/26 19:01:19;;;;;;;6.20;3.90;;;;;;100821.52;;;;106525;1295;63357;-32
2022/01/26 19:03:46;;;;;;;6.40;3.50;;;;;;100818.25;;;;106601;1297;66605;-35
2022/01/26 19:06:14;;;;;;;5.30;3.50;;;;;;100818.70;;;;106727;1296;63429;-33
2022/01/26 19:08:42;;;;;;;5.40;3.50;;;;;;100821.38;;;;106601;1297;63939;-43
2022/01/26 19:11:11;;;;;;;5.70;3.20;;;;;;100819.05;;;;106701;1295;63412;-42
2022/01/26 19:13:43;;;;;;;5.10;3.20;;;;;;100813.39;;;;106587;1297;63843;-42
2022/01/26 19:16:23;;;;;;;5.30;3.30;;;;;;100816.89;;;;106733;1295;65862;-48
2022/01/26 19:21:38;;;;;;;6.70;3.30;;;;;;100817.55;;;;106573;1295;63563;-41
2022/01/26 19:26:48;;;;;;;4.90;3.40;;;;;;100808.48;;;;106746;1296;63429;-43
2022/01/26 19:29:58;;;;;;;4.40;3.00;;;;;;100808.14;;;;106499;1295;68236;-44
2022/01/26 19:51:16;;;;;;;4.80;2.70;;;;;;100809.02;;;;106719;1295;63474;-44
2022/01/26 19:53:44;;;;;;;5.20;3.00;;;;;;100814.66;;;;106710;1296;63368;-44
2022/01/26 19:56:11;;;;;;;5.70;3.00;;;;;;100812.91;;;;106593;1295;66868;-45
2022/01/26 19:58:38;;;;;;;5.50;2.80;;;;;;100812.09;;;;106714;1295;63270;-42
2022/01/26 20:01:05;;;;;;;6.20;3.30;;;;;;100809.46;;;;106599;1297;63373;-42
2022/01/26 20:03:34;;;;;;;5.10;2.80;;;;;;100798.59;;;;106716;1297;63393;-44
2022/01/26 20:06:06;;;;;;;4.50;2.70;;;;;;100797.73;;;;106605;1296;63863;-43
2022/01/26 20:08:51;;;;;;;5.60;3.20;;;;;;100793.93;;;;106744;1297;66847;-42
2022/01/26 20:11:29;;;;;;;5.90;3.50;;;;;;100785.73;;;;106710;1297;63371;-45
2022/01/26 20:14:01;;;;;;;5.30;2.90;;;;;;100780.55;;;;106730;1297;63310;-43
2022/01/26 20:16:28;;;;;;;5.00;2.90;;;;;;100780.46;;;;106718;1295;63516;-32